sensor_id;sensor_type;location;lat;lon;timestamp;P1;durP1;ratioP1;P2;durP2;ratioP2
39276;SDS011;63149;48.086;-1.606;2023-02-24T06:02:51;53.53;;;24.45;;
39276;SDS011;63149;48.086;-1.606;2023-02-24T06:05:18;58.90;;;24.42;;
39276;SDS011;63149;48.086;-1.606;2023-02-24T06:07:54;51.75;;;23.10;;
39276;SDS011;63149;48.086;-1.606;2023-02-24T06:10:29;55.45;;;24.83;;
39276;SDS011;63149;48.086;-1.606;2023-02-24T06:12:57;55.20;;;23.50;;
39276;SDS011;63149;48.086;-1.606;2023-02-24T06:15:26;50.10;;;22.25;;
39276;SDS011;63149;48.086;-1.606;2023-02-24T06:17:55;53.05;;;21.58;;
39276;SDS011;63149;48.086;-1.606;2023-02-24T06:20:25;57.00;;;25.05;;
39276;SDS011;63149;48.086;-1.606;2023-02-24T06:22:52;52.40;;;22.55;;
39276;SDS011;63149;48.086;-1.606;2023-02-24T06:25:22;62.75;;;25.30;;
39276;SDS011;63149;48.086;-1.606;2023-02-24T06:27:50;51.55;;;22.38;;
39276;SDS011;63149;48.086;-1.606;2023-02-24T06:30:19;52.45;;;22.95;;
39276;SDS011;63149;48.086;-1.606;2023-02-24T06:32:47;55.42;;;23.48;;
39276;SDS011;63149;48.086;-1.606;2023-02-24T06:35:17;54.00;;;22.40;;
39276;SDS011;63149;48.086;-1.606;2023-02-24T06:37:45;57.05;;;24.10;;
39276;SDS011;63149;48.086;-1.606;2023-02-24T06:40:12;54.90;;;23.52;;
39276;SDS011;63149;48.086;-1.606;2023-02-24T06:42:44;55.45;;;24.83;;
39276;SDS011;63149;48.086;-1.606;2023-02-24T06:45:12;53.70;;;21.63;;
39276;SDS011;63149;48.086;-1.606;2023-02-24T06:47:41;57.70;;;24.30;;
39276;SDS011;63149;48.086;-1.606;2023-02-24T06:50:10;51.80;;;23.38;;
39276;SDS011;63149;48.086;-1.606;2023-02-24T06:52:38;52.90;;;22.48;;
39276;SDS011;63149;48.086;-1.606;2023-02-24T06:55:07;51.20;;;23.38;;
39276;SDS011;63149;48.086;-1.606;2023-02-24T06:57:50;54.58;;;23.00;;
39276;SDS011;63149;48.086;-1.606;2023-02-24T07:00:21;61.60;;;25.35;;
39276;SDS011;63149;48.086;-1.606;2023-02-24T07:03:01;57.00;;;24.35;;
39276;SDS011;63149;48.086;-1.606;2023-02-24T07:05:39;62.72;;;24.33;;
39276;SDS011;63149;48.086;-1.606;2023-02-24T07:08:09;53.92;;;23.52;;
39276;SDS011;63149;48.086;-1.606;2023-02-24T07:10:36;56.15;;;24.52;;
39276;SDS011;63149;48.086;-1.606;2023-02-24T07:13:04;59.03;;;25.33;;
39276;SDS011;63149;48.086;-1.606;2023-02-24T07:15:33;59.78;;;26.02;;
39276;SDS011;63149;48.086;-1.606;2023-02-24T07:18:01;53.90;;;23.95;;
39276;SDS011;63149;48.086;-1.606;2023-02-24T07:20:28;53.22;;;23.48;;
39276;SDS011;63149;48.086;-1.606;2023-02-24T07:22:59;39.42;;;17.67;;
39276;SDS011;63149;48.086;-1.606;2023-02-24T07:25:27;55.42;;;24.17;;
39276;SDS011;63149;48.086;-1.606;2023-02-24T07:27:58;52.03;;;23.27;;
39276;SDS011;63149;48.086;-1.606;2023-02-24T07:30:26;53.75;;;24.25;;
39276;SDS011;63149;48.086;-1.606;2023-02-24T07:32:54;54.05;;;23.83;;
39276;SDS011;63149;48.086;-1.606;2023-02-24T07:35:21;58.03;;;24.63;;
39276;SDS011;63149;48.086;-1.606;2023-02-24T07:37:49;58.45;;;24.88;;
39276;SDS011;63149;48.086;-1.606;2023-02-24T07:40:16;53.13;;;23.40;;
39276;SDS011;63149;48.086;-1.606;2023-02-24T07:42:47;53.47;;;24.02;;
39276;SDS011;63149;48.086;-1.606;2023-02-24T07:45:14;61.58;;;24.55;;
39276;SDS011;63149;48.086;-1.606;2023-02-24T07:47:41;51.55;;;22.67;;
39276;SDS011;63149;48.086;-1.606;2023-02-24T07:50:09;60.85;;;25.38;;
39276;SDS011;63149;48.086;-1.606;2023-02-24T07:52:38;56.28;;;25.02;;
39276;SDS011;63149;48.086;-1.606;2023-02-24T07:55:06;58.33;;;26.45;;
39276;SDS011;63149;48.086;-1.606;2023-02-24T07:57:34;58.00;;;24.95;;
39276;SDS011;63149;48.086;-1.606;2023-02-24T08:00:05;53.97;;;23.90;;
39276;SDS011;63149;48.086;-1.606;2023-02-24T08:02:42;57.63;;;25.98;;
39276;SDS011;63149;48.086;-1.606;2023-02-24T08:05:10;56.40;;;24.25;;
39276;SDS011;63149;48.086;-1.606;2023-02-24T08:07:37;58.63;;;25.30;;
39276;SDS011;63149;48.086;-1.606;2023-02-24T08:10:05;50.25;;;24.27;;
39276;SDS011;63149;48.086;-1.606;2023-02-24T08:12:38;59.78;;;26.00;;
39276;SDS011;63149;48.086;-1.606;2023-02-24T08:15:10;55.67;;;23.00;;
39276;SDS011;63149;48.086;-1.606;2023-02-24T08:17:48;58.83;;;24.17;;
39276;SDS011;63149;48.086;-1.606;2023-02-24T08:20:17;58.05;;;23.83;;
39276;SDS011;63149;48.086;-1.606;2023-02-24T08:22:49;60.00;;;23.67;;
39276;SDS011;63149;48.086;-1.606;2023-02-24T08:25:17;56.80;;;22.90;;
39276;SDS011;63149;48.086;-1.606;2023-02-24T08:27:47;56.72;;;23.33;;
39276;SDS011;63149;48.086;-1.606;2023-02-24T08:30:21;58.80;;;22.60;;
39276;SDS011;63149;48.086;-1.606;2023-02-24T08:32:50;58.58;;;23.35;;
39276;SDS011;63149;48.086;-1.606;2023-02-24T08:35:22;54.45;;;22.70;;
39276;SDS011;63149;48.086;-1.606;2023-02-24T08:37:56;57.30;;;23.80;;
39276;SDS011;63149;48.086;-1.606;2023-02-24T08:40:28;63.22;;;24.27;;
39276;SDS011;63149;48.086;-1.606;2023-02-24T08:43:04;55.97;;;23.77;;
39276;SDS011;63149;48.086;-1.606;2023-02-24T08:45:43;52.75;;;22.85;;
39276;SDS011;63149;48.086;-1.606;2023-02-24T08:48:14;52.70;;;21.10;;
39276;SDS011;63149;48.086;-1.606;2023-02-24T08:50:56;57.25;;;24.33;;
39276;SDS011;63149;48.086;-1.606;2023-02-24T08:53:25;52.75;;;22.10;;
39276;SDS011;63149;48.086;-1.606;2023-02-24T08:55:56;41.15;;;16.77;;
39276;SDS011;63149;48.086;-1.606;2023-02-24T08:58:24;47.65;;;22.15;;
39276;SDS011;63149;48.086;-1.606;2023-02-24T09:00:54;49.78;;;20.70;;
39276;SDS011;63149;48.086;-1.606;2023-02-24T09:03:24;45.65;;;22.10;;
39276;SDS011;63149;48.086;-1.606;2023-02-24T09:05:58;47.55;;;22.27;;
39276;SDS011;63149;48.086;-1.606;2023-02-24T09:08:27;46.25;;;21.55;;
39276;SDS011;63149;48.086;-1.606;2023-02-24T09:10:58;46.80;;;21.20;;
39276;SDS011;63149;48.086;-1.606;2023-02-24T09:13:31;46.08;;;19.38;;
39276;SDS011;63149;48.086;-1.606;2023-02-24T09:16:01;39.72;;;19.50;;
39276;SDS011;63149;48.086;-1.606;2023-02-24T09:18:29;46.55;;;19.98;;
39276;SDS011;63149;48.086;-1.606;2023-02-24T09:21:09;37.25;;;18.63;;
39276;SDS011;63149;48.086;-1.606;2023-02-24T09:24:02;38.65;;;18.40;;
39276;SDS011;63149;48.086;-1.606;2023-02-24T09:26:34;37.25;;;18.63;;
39276;SDS011;63149;48.086;-1.606;2023-02-24T09:29:07;33.30;;;16.95;;
39276;SDS011;63149;48.086;-1.606;2023-02-24T09:31:58;35.40;;;17.50;;
39276;SDS011;63149;48.086;-1.606;2023-02-24T09:34:29;33.17;;;16.30;;
39276;SDS011;63149;48.086;-1.606;2023-02-24T09:36:57;38.05;;;17.52;;
39276;SDS011;63149;48.086;-1.606;2023-02-24T09:39:28;26.97;;;13.33;;
39276;SDS011;63149;48.086;-1.606;2023-02-24T09:42:17;31.48;;;16.42;;
39276;SDS011;63149;48.086;-1.606;2023-02-24T09:45:11;40.42;;;16.63;;
39276;SDS011;63149;48.086;-1.606;2023-02-24T09:47:48;33.78;;;16.77;;
39276;SDS011;63149;48.086;-1.606;2023-02-24T09:50:23;32.38;;;15.25;;
39276;SDS011;63149;48.086;-1.606;2023-02-24T09:53:11;30.00;;;13.70;;
39276;SDS011;63149;48.086;-1.606;2023-02-24T09:55:43;28.13;;;13.75;;
39276;SDS011;63149;48.086;-1.606;2023-02-24T09:58:30;32.17;;;14.02;;
39276;SDS011;63149;48.086;-1.606;2023-02-24T10:01:05;28.60;;;13.15;;
39276;SDS011;63149;48.086;-1.606;2023-02-24T10:03:57;24.98;;;12.70;;
39276;SDS011;63149;48.086;-1.606;2023-02-24T10:06:34;27.02;;;12.52;;
39276;SDS011;63149;48.086;-1.606;2023-02-24T10:09:07;22.40;;;11.25;;
39276;SDS011;63149;48.086;-1.606;2023-02-24T10:11:40;23.55;;;10.73;;
39276;SDS011;63149;48.086;-1.606;2023-02-24T10:14:19;16.05;;;8.68;;
39276;SDS011;63149;48.086;-1.606;2023-02-24T10:16:50;15.43;;;8.75;;
39276;SDS011;63149;48.086;-1.606;2023-02-24T10:19:35;19.75;;;7.18;;
39276;SDS011;63149;48.086;-1.606;2023-02-24T10:22:06;16.50;;;8.32;;
39276;SDS011;63149;48.086;-1.606;2023-02-24T10:24:51;13.93;;;7.25;;
39276;SDS011;63149;48.086;-1.606;2023-02-24T10:27:43;11.35;;;6.07;;
39276;SDS011;63149;48.086;-1.606;2023-02-24T10:30:34;10.27;;;6.30;;
39276;SDS011;63149;48.086;-1.606;2023-02-24T10:33:16;12.40;;;6.20;;
39276;SDS011;63149;48.086;-1.606;2023-02-24T10:36:02;15.77;;;6.60;;
39276;SDS011;63149;48.086;-1.606;2023-02-24T10:38:34;14.93;;;6.05;;
39276;SDS011;63149;48.086;-1.606;2023-02-24T10:41:01;14.68;;;6.72;;
39276;SDS011;63149;48.086;-1.606;2023-02-24T10:43:31;12.05;;;6.55;;
39276;SDS011;63149;48.086;-1.606;2023-02-24T10:46:16;11.00;;;6.28;;
39276;SDS011;63149;48.086;-1.606;2023-02-24T10:48:49;12.95;;;6.82;;
39276;SDS011;63149;48.086;-1.606;2023-02-24T10:51:27;15.75;;;6.50;;
39276;SDS011;63149;48.086;-1.606;2023-02-24T10:54:05;12.30;;;6.30;;
39276;SDS011;63149;48.086;-1.606;2023-02-24T10:56:58;12.13;;;6.28;;
39276;SDS011;63149;48.086;-1.606;2023-02-24T10:59:48;16.80;;;7.15;;
39276;SDS011;63149;48.086;-1.606;2023-02-24T11:02:36;18.33;;;7.53;;
39276;SDS011;63149;48.086;-1.606;2023-02-24T11:05:21;11.05;;;6.38;;
39276;SDS011;63149;48.086;-1.606;2023-02-24T11:11:00;13.88;;;8.23;;
39276;SDS011;63149;48.086;-1.606;2023-02-24T11:13:33;13.57;;;6.55;;
39276;SDS011;63149;48.086;-1.606;2023-02-24T11:16:19;22.15;;;7.68;;
39276;SDS011;63149;48.086;-1.606;2023-02-24T11:19:04;15.77;;;8.48;;
39276;SDS011;63149;48.086;-1.606;2023-02-24T11:21:32;17.83;;;7.60;;
39276;SDS011;63149;48.086;-1.606;2023-02-24T11:24:03;16.73;;;7.20;;
39276;SDS011;63149;48.086;-1.606;2023-02-24T11:26:42;14.95;;;7.57;;
39276;SDS011;63149;48.086;-1.606;2023-02-24T11:29:19;17.35;;;8.18;;
39276;SDS011;63149;48.086;-1.606;2023-02-24T11:32:00;14.32;;;7.22;;
39276;SDS011;63149;48.086;-1.606;2023-02-24T11:34:39;13.82;;;6.70;;
39276;SDS011;63149;48.086;-1.606;2023-02-24T11:37:15;13.80;;;7.20;;
39276;SDS011;63149;48.086;-1.606;2023-02-24T11:39:56;16.65;;;7.25;;
39276;SDS011;63149;48.086;-1.606;2023-02-24T11:42:26;11.63;;;6.63;;
39276;SDS011;63149;48.086;-1.606;2023-02-24T11:45:00;12.73;;;6.95;;
39276;SDS011;63149;48.086;-1.606;2023-02-24T11:47:33;19.05;;;7.20;;
39276;SDS011;63149;48.086;-1.606;2023-02-24T11:50:08;11.25;;;6.93;;
39276;SDS011;63149;48.086;-1.606;2023-02-24T11:52:54;16.00;;;7.78;;
39276;SDS011;63149;48.086;-1.606;2023-02-24T11:55:28;19.10;;;7.20;;
39276;SDS011;63149;48.086;-1.606;2023-02-24T11:58:00;16.13;;;7.28;;
39276;SDS011;63149;48.086;-1.606;2023-02-24T12:00:31;14.60;;;7.25;;
39276;SDS011;63149;48.086;-1.606;2023-02-24T12:03:03;15.23;;;6.90;;
39276;SDS011;63149;48.086;-1.606;2023-02-24T12:05:38;13.65;;;7.30;;
39276;SDS011;63149;48.086;-1.606;2023-02-24T12:08:10;16.40;;;7.95;;
39276;SDS011;63149;48.086;-1.606;2023-02-24T12:10:48;17.85;;;7.55;;
39276;SDS011;63149;48.086;-1.606;2023-02-24T12:13:19;19.13;;;7.57;;
39276;SDS011;63149;48.086;-1.606;2023-02-24T12:15:55;17.67;;;8.02;;
39276;SDS011;63149;48.086;-1.606;2023-02-24T12:18:29;16.00;;;8.18;;
39276;SDS011;63149;48.086;-1.606;2023-02-24T12:23:30;17.13;;;6.97;;
39276;SDS011;63149;48.086;-1.606;2023-02-24T12:26:06;16.48;;;6.93;;
39276;SDS011;63149;48.086;-1.606;2023-02-24T12:31:51;13.00;;;7.50;;
39276;SDS011;63149;48.086;-1.606;2023-02-24T12:34:31;19.08;;;7.15;;
39276;SDS011;63149;48.086;-1.606;2023-02-24T12:40:12;12.27;;;6.95;;
39276;SDS011;63149;48.086;-1.606;2023-02-24T12:42:50;15.77;;;7.20;;
39276;SDS011;63149;48.086;-1.606;2023-02-24T12:45:23;13.60;;;8.15;;
39276;SDS011;63149;48.086;-1.606;2023-02-24T12:47:59;14.40;;;7.00;;
39276;SDS011;63149;48.086;-1.606;2023-02-24T12:50:41;18.60;;;7.45;;
39276;SDS011;63149;48.086;-1.606;2023-02-24T12:53:16;19.52;;;8.15;;
39276;SDS011;63149;48.086;-1.606;2023-02-24T12:55:50;12.30;;;6.80;;
39276;SDS011;63149;48.086;-1.606;2023-02-24T12:58:27;13.20;;;6.90;;
39276;SDS011;63149;48.086;-1.606;2023-02-24T13:01:00;14.02;;;6.95;;
39276;SDS011;63149;48.086;-1.606;2023-02-24T13:03:47;14.18;;;7.20;;
39276;SDS011;63149;48.086;-1.606;2023-02-24T13:06:27;16.08;;;8.43;;
39276;SDS011;63149;48.086;-1.606;2023-02-24T13:09:04;17.75;;;8.38;;
39276;SDS011;63149;48.086;-1.606;2023-02-24T13:11:41;14.73;;;7.97;;
39276;SDS011;63149;48.086;-1.606;2023-02-24T13:14:15;12.60;;;7.28;;
39276;SDS011;63149;48.086;-1.606;2023-02-24T13:16:49;14.75;;;7.72;;
39276;SDS011;63149;48.086;-1.606;2023-02-24T13:19:17;14.35;;;7.15;;
39276;SDS011;63149;48.086;-1.606;2023-02-24T13:21:56;15.52;;;8.10;;
39276;SDS011;63149;48.086;-1.606;2023-02-24T13:24:28;16.05;;;8.02;;
39276;SDS011;63149;48.086;-1.606;2023-02-24T13:27:05;14.43;;;7.43;;
39276;SDS011;63149;48.086;-1.606;2023-02-24T13:29:44;18.35;;;7.68;;
39276;SDS011;63149;48.086;-1.606;2023-02-24T13:32:22;14.13;;;7.17;;
39276;SDS011;63149;48.086;-1.606;2023-02-24T13:34:53;15.25;;;8.23;;
39276;SDS011;63149;48.086;-1.606;2023-02-24T13:37:29;18.20;;;8.10;;
39276;SDS011;63149;48.086;-1.606;2023-02-24T13:39:59;16.60;;;7.75;;
39276;SDS011;63149;48.086;-1.606;2023-02-24T13:42:40;9.77;;;5.20;;
39276;SDS011;63149;48.086;-1.606;2023-02-24T13:45:18;19.02;;;7.78;;
39276;SDS011;63149;48.086;-1.606;2023-02-24T13:50:58;14.70;;;7.13;;
39276;SDS011;63149;48.086;-1.606;2023-02-24T13:53:45;15.70;;;6.67;;
39276;SDS011;63149;48.086;-1.606;2023-02-24T13:56:27;12.25;;;7.32;;
39276;SDS011;63149;48.086;-1.606;2023-02-24T14:02:10;15.32;;;6.53;;
39276;SDS011;63149;48.086;-1.606;2023-02-24T14:04:44;15.43;;;7.20;;
39276;SDS011;63149;48.086;-1.606;2023-02-24T14:07:16;12.65;;;6.40;;
39276;SDS011;63149;48.086;-1.606;2023-02-24T14:09:47;20.42;;;7.10;;
39276;SDS011;63149;48.086;-1.606;2023-02-24T14:12:18;16.58;;;7.13;;
39276;SDS011;63149;48.086;-1.606;2023-02-24T14:14:48;12.30;;;6.40;;
39276;SDS011;63149;48.086;-1.606;2023-02-24T14:17:21;11.90;;;7.18;;
39276;SDS011;63149;48.086;-1.606;2023-02-24T14:19:52;12.38;;;5.95;;
39276;SDS011;63149;48.086;-1.606;2023-02-24T14:22:20;16.02;;;6.53;;
39276;SDS011;63149;48.086;-1.606;2023-02-24T14:24:59;14.63;;;6.65;;
39276;SDS011;63149;48.086;-1.606;2023-02-24T14:27:26;14.50;;;6.30;;
39276;SDS011;63149;48.086;-1.606;2023-02-24T14:29:53;16.88;;;6.35;;
39276;SDS011;63149;48.086;-1.606;2023-02-24T14:32:23;15.52;;;6.40;;
39276;SDS011;63149;48.086;-1.606;2023-02-24T14:34:51;11.35;;;4.68;;
39276;SDS011;63149;48.086;-1.606;2023-02-24T14:37:20;12.65;;;6.82;;
39276;SDS011;63149;48.086;-1.606;2023-02-24T14:39:51;13.63;;;5.88;;
39276;SDS011;63149;48.086;-1.606;2023-02-24T14:42:18;13.40;;;6.50;;
39276;SDS011;63149;48.086;-1.606;2023-02-24T14:44:46;15.05;;;5.70;;
39276;SDS011;63149;48.086;-1.606;2023-02-24T14:47:15;12.05;;;6.78;;
39276;SDS011;63149;48.086;-1.606;2023-02-24T14:49:52;13.82;;;5.85;;
39276;SDS011;63149;48.086;-1.606;2023-02-24T14:52:24;13.32;;;6.53;;
39276;SDS011;63149;48.086;-1.606;2023-02-24T14:55:01;12.25;;;6.00;;
39276;SDS011;63149;48.086;-1.606;2023-02-24T14:57:32;11.37;;;6.27;;
39276;SDS011;63149;48.086;-1.606;2023-02-24T15:00:03;11.65;;;5.93;;
39276;SDS011;63149;48.086;-1.606;2023-02-24T15:02:36;14.63;;;6.50;;
39276;SDS011;63149;48.086;-1.606;2023-02-24T15:05:07;13.98;;;5.53;;
39276;SDS011;63149;48.086;-1.606;2023-02-24T15:07:36;13.75;;;5.72;;
39276;SDS011;63149;48.086;-1.606;2023-02-24T15:10:04;16.95;;;6.53;;
39276;SDS011;63149;48.086;-1.606;2023-02-24T15:12:33;13.52;;;5.60;;
39276;SDS011;63149;48.086;-1.606;2023-02-24T15:15:02;12.85;;;5.60;;
39276;SDS011;63149;48.086;-1.606;2023-02-24T15:17:32;9.05;;;5.35;;
39276;SDS011;63149;48.086;-1.606;2023-02-24T15:22:58;10.75;;;5.38;;
39276;SDS011;63149;48.086;-1.606;2023-02-24T15:25:26;19.52;;;5.75;;
39276;SDS011;63149;48.086;-1.606;2023-02-24T15:27:55;9.43;;;4.82;;
39276;SDS011;63149;48.086;-1.606;2023-02-24T15:30:25;12.30;;;5.68;;
39276;SDS011;63149;48.086;-1.606;2023-02-24T15:32:59;12.50;;;5.75;;
39276;SDS011;63149;48.086;-1.606;2023-02-24T15:35:28;16.67;;;5.70;;
39276;SDS011;63149;48.086;-1.606;2023-02-24T15:37:58;13.35;;;5.10;;
39276;SDS011;63149;48.086;-1.606;2023-02-24T15:40:26;13.88;;;5.00;;
39276;SDS011;63149;48.086;-1.606;2023-02-24T15:42:56;14.32;;;5.20;;
39276;SDS011;63149;48.086;-1.606;2023-02-24T15:45:25;14.88;;;5.95;;
39276;SDS011;63149;48.086;-1.606;2023-02-24T15:50:23;9.93;;;4.50;;
39276;SDS011;63149;48.086;-1.606;2023-02-24T15:52:52;13.05;;;4.40;;
39276;SDS011;63149;48.086;-1.606;2023-02-24T15:55:22;15.82;;;5.03;;
39276;SDS011;63149;48.086;-1.606;2023-02-24T15:57:54;12.05;;;5.15;;
39276;SDS011;63149;48.086;-1.606;2023-02-24T16:00:23;14.27;;;4.20;;
39276;SDS011;63149;48.086;-1.606;2023-02-24T16:02:50;12.75;;;4.60;;
39276;SDS011;63149;48.086;-1.606;2023-02-24T16:05:17;9.70;;;4.20;;
39276;SDS011;63149;48.086;-1.606;2023-02-24T16:07:44;11.82;;;4.18;;
39276;SDS011;63149;48.086;-1.606;2023-02-24T16:10:21;14.27;;;4.28;;
39276;SDS011;63149;48.086;-1.606;2023-02-24T16:12:50;8.20;;;4.30;;
39276;SDS011;63149;48.086;-1.606;2023-02-24T16:15:21;9.55;;;4.75;;
39276;SDS011;63149;48.086;-1.606;2023-02-24T16:20:18;12.10;;;3.50;;
39276;SDS011;63149;48.086;-1.606;2023-02-24T16:22:52;10.60;;;4.40;;
39276;SDS011;63149;48.086;-1.606;2023-02-24T16:25:24;17.23;;;4.55;;
39276;SDS011;63149;48.086;-1.606;2023-02-24T16:27:52;11.27;;;5.03;;
39276;SDS011;63149;48.086;-1.606;2023-02-24T16:30:22;13.02;;;4.47;;
39276;SDS011;63149;48.086;-1.606;2023-02-24T16:32:50;9.40;;;3.10;;
39276;SDS011;63149;48.086;-1.606;2023-02-24T16:35:17;10.93;;;3.70;;
39276;SDS011;63149;48.086;-1.606;2023-02-24T16:37:45;9.80;;;3.33;;
39276;SDS011;63149;48.086;-1.606;2023-02-24T16:40:20;12.20;;;2.80;;
39276;SDS011;63149;48.086;-1.606;2023-02-24T16:42:50;10.13;;;3.10;;
39276;SDS011;63149;48.086;-1.606;2023-02-24T16:45:17;13.50;;;3.40;;
39276;SDS011;63149;48.086;-1.606;2023-02-24T16:47:45;9.25;;;3.40;;
39276;SDS011;63149;48.086;-1.606;2023-02-24T16:50:17;9.43;;;2.85;;
39276;SDS011;63149;48.086;-1.606;2023-02-24T16:52:46;10.35;;;3.17;;
39276;SDS011;63149;48.086;-1.606;2023-02-24T16:55:14;9.55;;;3.42;;
39276;SDS011;63149;48.086;-1.606;2023-02-24T16:57:41;8.85;;;2.85;;
39276;SDS011;63149;48.086;-1.606;2023-02-24T17:00:11;8.68;;;3.47;;
39276;SDS011;63149;48.086;-1.606;2023-02-24T17:02:40;14.75;;;3.85;;
39276;SDS011;63149;48.086;-1.606;2023-02-24T17:05:10;13.02;;;3.00;;
39276;SDS011;63149;48.086;-1.606;2023-02-24T17:07:41;8.98;;;3.00;;
39276;SDS011;63149;48.086;-1.606;2023-02-24T17:10:08;9.55;;;3.38;;
39276;SDS011;63149;48.086;-1.606;2023-02-24T17:12:36;8.70;;;3.10;;
39276;SDS011;63149;48.086;-1.606;2023-02-24T17:15:03;8.32;;;3.83;;
39276;SDS011;63149;48.086;-1.606;2023-02-24T17:17:32;11.80;;;3.78;;
39276;SDS011;63149;48.086;-1.606;2023-02-24T17:19:59;9.10;;;4.00;;
39276;SDS011;63149;48.086;-1.606;2023-02-24T17:22:26;8.02;;;3.65;;
39276;SDS011;63149;48.086;-1.606;2023-02-24T17:24:53;11.00;;;3.15;;
39276;SDS011;63149;48.086;-1.606;2023-02-24T17:27:20;12.40;;;3.08;;
39276;SDS011;63149;48.086;-1.606;2023-02-24T17:29:47;10.73;;;3.30;;
39276;SDS011;63149;48.086;-1.606;2023-02-24T17:32:14;7.18;;;2.58;;
39276;SDS011;63149;48.086;-1.606;2023-02-24T17:34:42;10.57;;;2.55;;
39276;SDS011;63149;48.086;-1.606;2023-02-24T17:37:09;6.35;;;2.75;;
39276;SDS011;63149;48.086;-1.606;2023-02-24T17:39:36;6.35;;;2.58;;
39276;SDS011;63149;48.086;-1.606;2023-02-24T17:42:03;6.88;;;2.75;;
39276;SDS011;63149;48.086;-1.606;2023-02-24T17:44:30;6.82;;;2.80;;
39276;SDS011;63149;48.086;-1.606;2023-02-24T17:46:57;8.00;;;2.97;;
39276;SDS011;63149;48.086;-1.606;2023-02-24T17:49:25;9.35;;;3.50;;
39276;SDS011;63149;48.086;-1.606;2023-02-24T17:51:53;11.73;;;3.10;;
39276;SDS011;63149;48.086;-1.606;2023-02-24T17:54:21;9.15;;;3.05;;
39276;SDS011;63149;48.086;-1.606;2023-02-24T17:56:48;9.57;;;3.13;;
39276;SDS011;63149;48.086;-1.606;2023-02-24T17:59:15;5.10;;;3.03;;
39276;SDS011;63149;48.086;-1.606;2023-02-24T18:01:41;10.27;;;3.63;;
39276;SDS011;63149;48.086;-1.606;2023-02-24T18:04:09;7.82;;;3.58;;
39276;SDS011;63149;48.086;-1.606;2023-02-24T18:06:38;7.05;;;3.35;;
39276;SDS011;63149;48.086;-1.606;2023-02-24T18:09:07;10.18;;;3.40;;
39276;SDS011;63149;48.086;-1.606;2023-02-24T18:11:34;10.07;;;4.05;;
39276;SDS011;63149;48.086;-1.606;2023-02-24T18:14:01;8.77;;;3.85;;
39276;SDS011;63149;48.086;-1.606;2023-02-24T18:16:28;9.48;;;4.18;;
39276;SDS011;63149;48.086;-1.606;2023-02-24T18:18:55;11.00;;;4.55;;
39276;SDS011;63149;48.086;-1.606;2023-02-24T18:21:22;10.43;;;4.32;;
39276;SDS011;63149;48.086;-1.606;2023-02-24T18:23:50;10.88;;;5.00;;
39276;SDS011;63149;48.086;-1.606;2023-02-24T18:26:18;11.50;;;4.40;;
39276;SDS011;63149;48.086;-1.606;2023-02-24T18:28:46;10.35;;;4.30;;
39276;SDS011;63149;48.086;-1.606;2023-02-24T18:31:16;10.70;;;4.75;;
39276;SDS011;63149;48.086;-1.606;2023-02-24T18:33:44;13.73;;;4.68;;
39276;SDS011;63149;48.086;-1.606;2023-02-24T18:36:11;9.05;;;4.45;;
39276;SDS011;63149;48.086;-1.606;2023-02-24T18:38:39;8.15;;;4.15;;
39276;SDS011;63149;48.086;-1.606;2023-02-24T18:41:07;12.82;;;4.32;;
39276;SDS011;63149;48.086;-1.606;2023-02-24T18:43:37;9.30;;;3.63;;
39276;SDS011;63149;48.086;-1.606;2023-02-24T18:46:05;8.88;;;4.18;;
39276;SDS011;63149;48.086;-1.606;2023-02-24T18:48:33;11.00;;;4.22;;
39276;SDS011;63149;48.086;-1.606;2023-02-24T18:51:00;8.55;;;4.22;;
39276;SDS011;63149;48.086;-1.606;2023-02-24T18:53:28;12.13;;;4.85;;
39276;SDS011;63149;48.086;-1.606;2023-02-24T18:55:58;11.27;;;4.18;;
39276;SDS011;63149;48.086;-1.606;2023-02-24T18:58:26;11.07;;;4.50;;
39276;SDS011;63149;48.086;-1.606;2023-02-24T19:00:54;9.23;;;4.70;;
39276;SDS011;63149;48.086;-1.606;2023-02-24T19:03:21;10.88;;;5.20;;
39276;SDS011;63149;48.086;-1.606;2023-02-24T19:05:48;13.88;;;5.40;;
39276;SDS011;63149;48.086;-1.606;2023-02-24T19:08:15;11.85;;;5.68;;
39276;SDS011;63149;48.086;-1.606;2023-02-24T19:10:43;14.20;;;6.60;;
39276;SDS011;63149;48.086;-1.606;2023-02-24T19:13:10;11.48;;;5.90;;
39276;SDS011;63149;48.086;-1.606;2023-02-24T19:15:37;12.00;;;4.85;;
39276;SDS011;63149;48.086;-1.606;2023-02-24T19:18:06;12.52;;;4.82;;
39276;SDS011;63149;48.086;-1.606;2023-02-24T19:20:33;9.18;;;5.03;;
39276;SDS011;63149;48.086;-1.606;2023-02-24T19:23:00;15.00;;;5.35;;
39276;SDS011;63149;48.086;-1.606;2023-02-24T19:25:27;13.98;;;6.38;;
39276;SDS011;63149;48.086;-1.606;2023-02-24T19:27:54;12.70;;;5.68;;
39276;SDS011;63149;48.086;-1.606;2023-02-24T19:30:21;14.95;;;5.43;;
39276;SDS011;63149;48.086;-1.606;2023-02-24T19:32:48;15.65;;;6.63;;
39276;SDS011;63149;48.086;-1.606;2023-02-24T19:35:16;17.60;;;6.25;;
39276;SDS011;63149;48.086;-1.606;2023-02-24T19:37:46;8.95;;;4.85;;
39276;SDS011;63149;48.086;-1.606;2023-02-24T19:40:13;12.15;;;5.25;;
39276;SDS011;63149;48.086;-1.606;2023-02-24T19:42:40;9.50;;;5.00;;
39276;SDS011;63149;48.086;-1.606;2023-02-24T19:45:07;10.45;;;5.25;;
39276;SDS011;63149;48.086;-1.606;2023-02-24T19:47:35;10.40;;;6.13;;
39276;SDS011;63149;48.086;-1.606;2023-02-24T19:50:02;16.70;;;5.15;;
39276;SDS011;63149;48.086;-1.606;2023-02-24T19:52:30;12.43;;;5.25;;
39276;SDS011;63149;48.086;-1.606;2023-02-24T19:54:57;14.52;;;5.13;;
39276;SDS011;63149;48.086;-1.606;2023-02-24T19:57:24;15.38;;;5.45;;
39276;SDS011;63149;48.086;-1.606;2023-02-24T19:59:51;9.73;;;5.05;;
39276;SDS011;63149;48.086;-1.606;2023-02-24T20:02:18;10.10;;;4.65;;
39276;SDS011;63149;48.086;-1.606;2023-02-24T20:04:45;11.90;;;4.72;;
39276;SDS011;63149;48.086;-1.606;2023-02-24T20:07:12;14.43;;;5.78;;
39276;SDS011;63149;48.086;-1.606;2023-02-24T20:09:40;12.32;;;4.72;;
39276;SDS011;63149;48.086;-1.606;2023-02-24T20:12:08;11.27;;;5.47;;
39276;SDS011;63149;48.086;-1.606;2023-02-24T20:14:35;10.90;;;5.38;;
39276;SDS011;63149;48.086;-1.606;2023-02-24T20:17:02;12.32;;;5.05;;
39276;SDS011;63149;48.086;-1.606;2023-02-24T20:19:29;10.82;;;5.10;;
39276;SDS011;63149;48.086;-1.606;2023-02-24T20:21:57;12.73;;;5.22;;
39276;SDS011;63149;48.086;-1.606;2023-02-24T20:24:24;7.68;;;4.95;;
39276;SDS011;63149;48.086;-1.606;2023-02-24T20:26:52;11.85;;;4.97;;
39276;SDS011;63149;48.086;-1.606;2023-02-24T20:29:19;19.02;;;5.88;;
39276;SDS011;63149;48.086;-1.606;2023-02-24T20:31:46;13.07;;;5.35;;
39276;SDS011;63149;48.086;-1.606;2023-02-24T20:34:14;11.07;;;5.10;;
39276;SDS011;63149;48.086;-1.606;2023-02-24T20:36:42;13.38;;;5.45;;
39276;SDS011;63149;48.086;-1.606;2023-02-24T20:39:09;13.50;;;6.07;;
39276;SDS011;63149;48.086;-1.606;2023-02-24T20:41:37;12.73;;;5.93;;
39276;SDS011;63149;48.086;-1.606;2023-02-24T20:44:06;13.38;;;5.90;;
39276;SDS011;63149;48.086;-1.606;2023-02-24T20:46:34;14.07;;;5.75;;
39276;SDS011;63149;48.086;-1.606;2023-02-24T20:49:02;13.43;;;5.60;;
39276;SDS011;63149;48.086;-1.606;2023-02-24T20:51:31;14.18;;;5.68;;
39276;SDS011;63149;48.086;-1.606;2023-02-24T20:53:59;17.50;;;6.93;;
39276;SDS011;63149;48.086;-1.606;2023-02-24T20:56:27;17.08;;;6.90;;
39276;SDS011;63149;48.086;-1.606;2023-02-24T20:58:58;16.73;;;6.00;;
39276;SDS011;63149;48.086;-1.606;2023-02-24T21:01:28;14.35;;;6.18;;
39276;SDS011;63149;48.086;-1.606;2023-02-24T21:03:56;16.08;;;6.30;;
39276;SDS011;63149;48.086;-1.606;2023-02-24T21:06:23;15.88;;;6.47;;
39276;SDS011;63149;48.086;-1.606;2023-02-24T21:08:51;9.95;;;6.03;;
39276;SDS011;63149;48.086;-1.606;2023-02-24T21:11:18;13.13;;;6.18;;